sensor_id;sensor_type;location;lat;lon;timestamp;pressure;altitude;pressure_sealevel;temperature;humidity
6413;BME280;3239;48.714;9.472;2022-10-17T00:01:57;99426.13;;;13.16;100.00
6413;BME280;3239;48.714;9.472;2022-10-17T00:04:22;99429.88;;;13.19;100.00
6413;BME280;3239;48.714;9.472;2022-10-17T00:06:48;99427.91;;;13.14;100.00
6413;BME280;3239;48.714;9.472;2022-10-17T00:09:14;99423.88;;;13.20;100.00
6413;BME280;3239;48.714;9.472;2022-10-17T00:11:40;99428.19;;;13.10;100.00
6413;BME280;3239;48.714;9.472;2022-10-17T00:14:05;99431.72;;;13.05;100.00
6413;BME280;3239;48.714;9.472;2022-10-17T00:16:34;99432.00;;;13.02;100.00
6413;BME280;3239;48.714;9.472;2022-10-17T00:19:03;99431.50;;;13.03;100.00
6413;BME280;3239;48.714;9.472;2022-10-17T00:21:29;99436.50;;;13.05;100.00
6413;BME280;3239;48.714;9.472;2022-10-17T00:23:55;99440.25;;;13.02;100.00
6413;BME280;3239;48.714;9.472;2022-10-17T00:26:20;99438.00;;;13.00;100.00
6413;BME280;3239;48.714;9.472;2022-10-17T00:28:48;99445.81;;;12.96;100.00
6413;BME280;3239;48.714;9.472;2022-10-17T00:31:16;99453.28;;;12.96;100.00
6413;BME280;3239;48.714;9.472;2022-10-17T00:33:42;99453.53;;;12.92;100.00
6413;BME280;3239;48.714;9.472;2022-10-17T00:36:18;99457.28;;;12.95;100.00
6413;BME280;3239;48.714;9.472;2022-10-17T00:38:46;99447.31;;;12.86;100.00
6413;BME280;3239;48.714;9.472;2022-10-17T00:41:17;99460.09;;;12.84;100.00
6413;BME280;3239;48.714;9.472;2022-10-17T00:43:55;99466.09;;;12.82;100.00
6413;BME280;3239;48.714;9.472;2022-10-17T00:46:24;99460.09;;;12.84;100.00
6413;BME280;3239;48.714;9.472;2022-10-17T00:48:53;99456.34;;;12.81;100.00
6413;BME280;3239;48.714;9.472;2022-10-17T00:51:36;99453.84;;;12.83;100.00
6413;BME280;3239;48.714;9.472;2022-10-17T00:54:03;99454.34;;;12.82;100.00
6413;BME280;3239;48.714;9.472;2022-10-17T00:56:30;99456.09;;;12.79;100.00
6413;BME280;3239;48.714;9.472;2022-10-17T00:58:56;99458.06;;;12.84;100.00
6413;BME280;3239;48.714;9.472;2022-10-17T01:01:22;99458.38;;;12.75;100.00
6413;BME280;3239;48.714;9.472;2022-10-17T01:03:48;99456.34;;;12.81;100.00
6413;BME280;3239;48.714;9.472;2022-10-17T01:06:13;99465.34;;;12.82;100.00
6413;BME280;3239;48.714;9.472;2022-10-17T01:08:39;99452.88;;;12.75;100.00
6413;BME280;3239;48.714;9.472;2022-10-17T01:16:57;99467.97;;;12.58;100.00
6413;BME280;3239;48.714;9.472;2022-10-17T01:25:56;99469.72;;;12.55;100.00
6413;BME280;3239;48.714;9.472;2022-10-17T01:31:22;99463.50;;;12.49;100.00
6413;BME280;3239;48.714;9.472;2022-10-17T01:34:44;99465.56;;;12.32;100.00
6413;BME280;3239;48.714;9.472;2022-10-17T01:42:54;99461.06;;;12.29;100.00
6413;BME280;3239;48.714;9.472;2022-10-17T01:46:09;99463.81;;;12.29;100.00
6413;BME280;3239;48.714;9.472;2022-10-17T01:48:37;99457.56;;;12.29;100.00
6413;BME280;3239;48.714;9.472;2022-10-17T01:51:16;99457.59;;;12.18;100.00
6413;BME280;3239;48.714;9.472;2022-10-17T01:54:03;99454.84;;;12.23;100.00
6413;BME280;3239;48.714;9.472;2022-10-17T01:56:32;99460.34;;;12.18;100.00
6413;BME280;3239;48.714;9.472;2022-10-17T01:59:10;99458.59;;;12.20;100.00
6413;BME280;3239;48.714;9.472;2022-10-17T02:01:38;99451.38;;;12.17;100.00
6413;BME280;3239;48.714;9.472;2022-10-17T02:04:07;99452.59;;;12.16;100.00
6413;BME280;3239;48.714;9.472;2022-10-17T02:06:35;99447.34;;;12.18;100.00
6413;BME280;3239;48.714;9.472;2022-10-17T02:09:17;99455.88;;;12.15;100.00
6413;BME280;3239;48.714;9.472;2022-10-17T02:12:13;99448.88;;;12.08;100.00
6413;BME280;3239;48.714;9.472;2022-10-17T02:18:20;99447.63;;;12.09;100.00
6413;BME280;3239;48.714;9.472;2022-10-17T02:23:28;99443.91;;;12.01;100.00
6413;BME280;3239;48.714;9.472;2022-10-17T02:29:02;99438.41;;;12.01;100.00
6413;BME280;3239;48.714;9.472;2022-10-17T02:34:31;99438.19;;;11.94;100.00
6413;BME280;3239;48.714;9.472;2022-10-17T02:37:01;99448.44;;;11.88;100.00
6413;BME280;3239;48.714;9.472;2022-10-17T02:39:31;99447.19;;;11.89;100.00
6413;BME280;3239;48.714;9.472;2022-10-17T02:42:02;99453.94;;;11.88;100.00
6413;BME280;3239;48.714;9.472;2022-10-17T02:44:31;99451.91;;;11.88;100.00
6413;BME280;3239;48.714;9.472;2022-10-17T02:47:30;99450.69;;;11.84;100.00
6413;BME280;3239;48.714;9.472;2022-10-17T02:49:57;99451.44;;;11.79;100.00
6413;BME280;3239;48.714;9.472;2022-10-17T02:55:15;99451.41;;;11.73;100.00
6413;BME280;3239;48.714;9.472;2022-10-17T02:58:06;99455.41;;;11.72;100.00
6413;BME280;3239;48.714;9.472;2022-10-17T03:00:33;99453.94;;;11.71;100.00
6413;BME280;3239;48.714;9.472;2022-10-17T03:02:59;99457.94;;;11.59;100.00
6413;BME280;3239;48.714;9.472;2022-10-17T03:05:28;99453.44;;;11.62;100.00
6413;BME280;3239;48.714;9.472;2022-10-17T03:07:55;99452.44;;;11.59;100.00
6413;BME280;3239;48.714;9.472;2022-10-17T03:10:21;99454.66;;;11.55;100.00
6413;BME280;3239;48.714;9.472;2022-10-17T03:12:47;99460.38;;;11.57;100.00
6413;BME280;3239;48.714;9.472;2022-10-17T03:15:13;99458.16;;;11.50;100.00
6413;BME280;3239;48.714;9.472;2022-10-17T03:17:40;99450.41;;;11.49;100.00
6413;BME280;3239;48.714;9.472;2022-10-17T03:20:06;99443.69;;;11.44;100.00
6413;BME280;3239;48.714;9.472;2022-10-17T03:22:32;99449.41;;;11.46;100.00
6413;BME280;3239;48.714;9.472;2022-10-17T03:24:58;99451.44;;;11.46;100.00
6413;BME280;3239;48.714;9.472;2022-10-17T03:27:24;99450.16;;;11.41;100.00
6413;BME280;3239;48.714;9.472;2022-10-17T03:29:50;99457.66;;;11.41;100.00
6413;BME280;3239;48.714;9.472;2022-10-17T03:32:16;99456.41;;;11.42;100.00
6413;BME280;3239;48.714;9.472;2022-10-17T03:34:41;99459.88;;;11.42;100.00
6413;BME280;3239;48.714;9.472;2022-10-17T03:37:07;99464.88;;;11.38;100.00
6413;BME280;3239;48.714;9.472;2022-10-17T03:39:33;99461.88;;;11.36;100.00
6413;BME280;3239;48.714;9.472;2022-10-17T03:41:59;99467.63;;;11.38;100.00
6413;BME280;3239;48.714;9.472;2022-10-17T03:44:24;99464.38;;;11.34;100.00
6413;BME280;3239;48.714;9.472;2022-10-17T03:46:50;99477.84;;;11.27;100.00
6413;BME280;3239;48.714;9.472;2022-10-17T03:49:16;99480.09;;;11.28;100.00
6413;BME280;3239;48.714;9.472;2022-10-17T03:51:41;99481.31;;;11.22;100.00
6413;BME280;3239;48.714;9.472;2022-10-17T03:54:07;99480.34;;;11.25;100.00
6413;BME280;3239;48.714;9.472;2022-10-17T03:56:33;99479.59;;;11.24;100.00
6413;BME280;3239;48.714;9.472;2022-10-17T03:58:59;99481.56;;;11.24;100.00
6413;BME280;3239;48.714;9.472;2022-10-17T04:01:24;99484.81;;;11.22;100.00
6413;BME280;3239;48.714;9.472;2022-10-17T04:03:54;99488.56;;;11.25;100.00
6413;BME280;3239;48.714;9.472;2022-10-17T04:06:21;99489.81;;;11.29;100.00
6413;BME280;3239;48.714;9.472;2022-10-17T04:08:47;99492.81;;;11.26;100.00
6413;BME280;3239;48.714;9.472;2022-10-17T04:11:19;99474.06;;;11.13;100.00
6413;BME280;3239;48.714;9.472;2022-10-17T04:13:45;99483.28;;;11.10;100.00
6413;BME280;3239;48.714;9.472;2022-10-17T04:16:14;99482.00;;;10.89;100.00
6413;BME280;3239;48.714;9.472;2022-10-17T04:18:41;99481.47;;;10.80;100.00
6413;BME280;3239;48.714;9.472;2022-10-17T04:21:08;99487.66;;;10.69;100.00
6413;BME280;3239;48.714;9.472;2022-10-17T04:23:34;99500.66;;;10.74;100.00
6413;BME280;3239;48.714;9.472;2022-10-17T04:26:02;99503.16;;;10.78;100.00
6413;BME280;3239;48.714;9.472;2022-10-17T04:28:29;99502.88;;;10.76;100.00
6413;BME280;3239;48.714;9.472;2022-10-17T04:31:02;99505.13;;;10.77;100.00
6413;BME280;3239;48.714;9.472;2022-10-17T04:33:29;99508.88;;;10.74;100.00
6413;BME280;3239;48.714;9.472;2022-10-17T04:36:03;99502.88;;;10.76;100.00
6413;BME280;3239;48.714;9.472;2022-10-17T04:38:30;99507.38;;;10.79;100.00
6413;BME280;3239;48.714;9.472;2022-10-17T04:40:57;99514.84;;;10.78;100.00
6413;BME280;3239;48.714;9.472;2022-10-17T04:43:23;99516.84;;;10.78;100.00
6413;BME280;3239;48.714;9.472;2022-10-17T04:45:49;99519.34;;;10.81;100.00
6413;BME280;3239;48.714;9.472;2022-10-17T04:48:14;99512.09;;;10.78;100.00
6413;BME280;3239;48.714;9.472;2022-10-17T04:50:40;99511.88;;;10.82;100.00
6413;BME280;3239;48.714;9.472;2022-10-17T04:53:06;99506.38;;;10.76;100.00
6413;BME280;3239;48.714;9.472;2022-10-17T04:55:36;99501.88;;;10.73;100.00
6413;BME280;3239;48.714;9.472;2022-10-17T04:58:03;99503.13;;;10.72;100.00
6413;BME280;3239;48.714;9.472;2022-10-17T05:00:28;99508.59;;;10.72;100.00
6413;BME280;3239;48.714;9.472;2022-10-17T05:02:54;99510.34;;;10.70;100.00
6413;BME280;3239;48.714;9.472;2022-10-17T05:05:20;99512.56;;;10.66;100.00
6413;BME280;3239;48.714;9.472;2022-10-17T05:07:45;99509.81;;;10.66;100.00
6413;BME280;3239;48.714;9.472;2022-10-17T05:10:11;99509.03;;;10.60;100.00
6413;BME280;3239;48.714;9.472;2022-10-17T05:12:37;99510.56;;;10.61;100.00
6413;BME280;3239;48.714;9.472;2022-10-17T05:15:03;99516.78;;;10.61;100.00
6413;BME280;3239;48.714;9.472;2022-10-17T05:17:29;99511.78;;;10.60;100.00
6413;BME280;3239;48.714;9.472;2022-10-17T05:19:54;99510.28;;;10.53;100.00
6413;BME280;3239;48.714;9.472;2022-10-17T05:22:20;99512.50;;;10.55;100.00
6413;BME280;3239;48.714;9.472;2022-10-17T05:24:46;99509.56;;;10.58;100.00
6413;BME280;3239;48.714;9.472;2022-10-17T05:27:12;99506.53;;;10.56;100.00
6413;BME280;3239;48.714;9.472;2022-10-17T05:29:38;99505.75;;;10.50;100.00
6413;BME280;3239;48.714;9.472;2022-10-17T05:32:04;99500.78;;;10.49;100.00
6413;BME280;3239;48.714;9.472;2022-10-17T05:34:30;99506.72;;;10.47;100.00
6413;BME280;3239;48.714;9.472;2022-10-17T05:36:56;99511.00;;;10.48;100.00
6413;BME280;3239;48.714;9.472;2022-10-17T05:39:22;99510.47;;;10.50;100.00
6413;BME280;3239;48.714;9.472;2022-10-17T05:41:48;99505.53;;;10.54;100.00
6413;BME280;3239;48.714;9.472;2022-10-17T05:44:15;99510.53;;;10.55;100.00
6413;BME280;3239;48.714;9.472;2022-10-17T05:46:41;99501.53;;;10.55;100.00
6413;BME280;3239;48.714;9.472;2022-10-17T05:49:09;99511.53;;;10.58;100.00
6413;BME280;3239;48.714;9.472;2022-10-17T05:51:35;99514.50;;;10.54;100.00
6413;BME280;3239;48.714;9.472;2022-10-17T05:54:00;99521.25;;;10.59;100.00
6413;BME280;3239;48.714;9.472;2022-10-17T05:56:26;99525.72;;;10.56;100.00
6413;BME280;3239;48.714;9.472;2022-10-17T05:58:52;99534.44;;;10.55;100.00
6413;BME280;3239;48.714;9.472;2022-10-17T06:01:18;99538.94;;;10.58;100.00
6413;BME280;3239;48.714;9.472;2022-10-17T06:03:43;99539.94;;;10.60;100.00
6413;BME280;3239;48.714;9.472;2022-10-17T06:06:12;99541.19;;;10.59;100.00
6413;BME280;3239;48.714;9.472;2022-10-17T06:08:38;99544.44;;;10.63;100.00
6413;BME280;3239;48.714;9.472;2022-10-17T06:11:04;99543.22;;;10.70;100.00
6413;BME280;3239;48.714;9.472;2022-10-17T06:13:30;99548.03;;;10.80;100.00
6413;BME280;3239;48.714;9.472;2022-10-17T06:15:56;99548.53;;;10.84;100.00
6413;BME280;3239;48.714;9.472;2022-10-17T06:18:22;99547.31;;;10.85;100.00
6413;BME280;3239;48.714;9.472;2022-10-17T06:20:48;99543.34;;;10.97;100.00
6413;BME280;3239;48.714;9.472;2022-10-17T06:23:13;99548.34;;;11.04;100.00
6413;BME280;3239;48.714;9.472;2022-10-17T06:25:39;99545.38;;;11.08;100.00
6413;BME280;3239;48.714;9.472;2022-10-17T06:28:05;99541.41;;;11.14;100.00
6413;BME280;3239;48.714;9.472;2022-10-17T06:30:31;99546.97;;;11.42;100.00
6413;BME280;3239;48.714;9.472;2022-10-17T06:32:57;99545.03;;;11.64;100.00
6413;BME280;3239;48.714;9.472;2022-10-17T06:35:22;99537.78;;;11.83;100.00
6413;BME280;3239;48.714;9.472;2022-10-17T06:37:48;99527.78;;;12.13;100.00
6413;BME280;3239;48.714;9.472;2022-10-17T06:40:14;99513.81;;;12.06;100.00
6413;BME280;3239;48.714;9.472;2022-10-17T06:42:42;99504.31;;;12.07;100.00
6413;BME280;3239;48.714;9.472;2022-10-17T06:45:08;99496.50;;;12.49;100.00
6413;BME280;3239;48.714;9.472;2022-10-17T06:47:35;99454.13;;;11.95;100.00
6413;BME280;3239;48.714;9.472;2022-10-17T06:50:01;99432.69;;;11.77;100.00
6413;BME280;3239;48.714;9.472;2022-10-17T06:52:27;99444.13;;;12.20;100.00
6413;BME280;3239;48.714;9.472;2022-10-17T06:54:52;99425.78;;;12.39;100.00
6413;BME280;3239;48.714;9.472;2022-10-17T06:57:18;99403.53;;;12.48;100.00
6413;BME280;3239;48.714;9.472;2022-10-17T06:59:44;99394.19;;;13.08;100.00
6413;BME280;3239;48.714;9.472;2022-10-17T07:02:10;99368.25;;;13.81;100.00
6413;BME280;3239;48.714;9.472;2022-10-17T07:04:36;99329.44;;;14.03;100.00
6413;BME280;3239;48.714;9.472;2022-10-17T07:07:03;99295.78;;;13.91;100.00
6413;BME280;3239;48.714;9.472;2022-10-17T07:09:30;99286.13;;;13.37;100.00
6413;BME280;3239;48.714;9.472;2022-10-17T07:11:58;99291.78;;;14.48;100.00
6413;BME280;3239;48.714;9.472;2022-10-17T07:14:25;99252.13;;;15.66;100.00
6413;BME280;3239;48.714;9.472;2022-10-17T07:16:57;99182.25;;;14.61;100.00
6413;BME280;3239;48.714;9.472;2022-10-17T07:19:24;99187.47;;;14.33;100.00
6413;BME280;3239;48.714;9.472;2022-10-17T07:21:49;99185.84;;;15.40;100.00
6413;BME280;3239;48.714;9.472;2022-10-17T07:24:15;99177.44;;;14.49;100.00
6413;BME280;3239;48.714;9.472;2022-10-17T07:26:41;99210.41;;;14.04;100.00
6413;BME280;3239;48.714;9.472;2022-10-17T07:29:08;99236.31;;;14.20;100.00
6413;BME280;3239;48.714;9.472;2022-10-17T07:31:34;99238.00;;;15.56;100.00
6413;BME280;3239;48.714;9.472;2022-10-17T07:34:00;99208.22;;;16.22;100.00
6413;BME280;3239;48.714;9.472;2022-10-17T07:36:25;99147.84;;;16.74;100.00
6413;BME280;3239;48.714;9.472;2022-10-17T07:38:51;99113.31;;;16.68;100.00
6413;BME280;3239;48.714;9.472;2022-10-17T07:41:17;99118.84;;;15.13;100.00
6413;BME280;3239;48.714;9.472;2022-10-17T07:43:44;99151.31;;;15.20;100.00
6413;BME280;3239;48.714;9.472;2022-10-17T07:46:10;99185.94;;;15.47;100.00
6413;BME280;3239;48.714;9.472;2022-10-17T07:48:37;99166.16;;;16.77;100.00
6413;BME280;3239;48.714;9.472;2022-10-17T07:51:06;99105.69;;;17.60;100.00
6413;BME280;3239;48.714;9.472;2022-10-17T07:53:35;99099.72;;;17.48;100.00
6413;BME280;3239;48.714;9.472;2022-10-17T07:56:08;99063.59;;;17.26;100.00
6413;BME280;3239;48.714;9.472;2022-10-17T07:58:35;99082.06;;;16.60;100.00
6413;BME280;3239;48.714;9.472;2022-10-17T08:01:08;99104.41;;;16.90;100.00
6413;BME280;3239;48.714;9.472;2022-10-17T08:03:35;99111.66;;;16.44;100.00
6413;BME280;3239;48.714;9.472;2022-10-17T08:06:03;99135.16;;;16.17;100.00
6413;BME280;3239;48.714;9.472;2022-10-17T08:08:29;99150.25;;;15.96;100.00
6413;BME280;3239;48.714;9.472;2022-10-17T08:11:02;99162.16;;;16.24;100.00
6413;BME280;3239;48.714;9.472;2022-10-17T08:13:28;99169.78;;;16.72;100.00
6413;BME280;3239;48.714;9.472;2022-10-17T08:16:01;99156.28;;;16.28;100.00
6413;BME280;3239;48.714;9.472;2022-10-17T08:18:27;99178.34;;;17.73;100.00
6413;BME280;3239;48.714;9.472;2022-10-17T08:20:54;99103.88;;;19.35;100.00
6413;BME280;3239;48.714;9.472;2022-10-17T08:23:19;99088.78;;;18.23;100.00
6413;BME280;3239;48.714;9.472;2022-10-17T08:25:45;99048.97;;;19.82;100.00
6413;BME280;3239;48.714;9.472;2022-10-17T08:28:11;99028.00;;;20.89;100.00
6413;BME280;3239;48.714;9.472;2022-10-17T08:30:37;98999.03;;;19.60;100.00
6413;BME280;3239;48.714;9.472;2022-10-17T08:33:02;99019.91;;;18.89;100.00
6413;BME280;3239;48.714;9.472;2022-10-17T08:35:28;99041.09;;;18.62;100.00
6413;BME280;3239;48.714;9.472;2022-10-17T08:37:54;99052.56;;;19.21;100.00
6413;BME280;3239;48.714;9.472;2022-10-17T08:40:23;99059.38;;;18.73;100.00
6413;BME280;3239;48.714;9.472;2022-10-17T08:45:50;99087.91;;;18.66;100.00
6413;BME280;3239;48.714;9.472;2022-10-17T08:48:22;99103.09;;;19.34;100.00
6413;BME280;3239;48.714;9.472;2022-10-17T08:50:59;99060.84;;;21.41;100.00
6413;BME280;3239;48.714;9.472;2022-10-17T08:56:45;99036.34;;;21.23;100.00
6413;BME280;3239;48.714;9.472;2022-10-17T08:59:25;99007.81;;;22.30;100.00
6413;BME280;3239;48.714;9.472;2022-10-17T09:02:13;99011.19;;;20.79;100.00
6413;BME280;3239;48.714;9.472;2022-10-17T09:07:56;99026.72;;;20.07;100.00
6413;BME280;3239;48.714;9.472;2022-10-17T09:14:31;99020.44;;;20.82;100.00
6413;BME280;3239;48.714;9.472;2022-10-17T09:20:07;98982.72;;;24.36;100.00
6413;BME280;3239;48.714;9.472;2022-10-17T09:23:02;98977.38;;;22.25;100.00
6413;BME280;3239;48.714;9.472;2022-10-17T09:25:40;98980.69;;;22.50;100.00
6413;BME280;3239;48.714;9.472;2022-10-17T09:28:24;98969.72;;;23.89;100.00
6413;BME280;3239;48.714;9.472;2022-10-17T09:33:44;98960.69;;;22.53;100.00
6413;BME280;3239;48.714;9.472;2022-10-17T09:36:16;98966.25;;;22.63;100.00
6413;BME280;3239;48.714;9.472;2022-10-17T09:39:11;98966.25;;;23.69;100.00
6413;BME280;3239;48.714;9.472;2022-10-17T09:41:47;98959.09;;;23.97;100.00
6413;BME280;3239;48.714;9.472;2022-10-17T09:44:22;98954.34;;;23.00;100.00
6413;BME280;3239;48.714;9.472;2022-10-17T09:49:35;98946.75;;;26.31;99.16
6413;BME280;3239;48.714;9.472;2022-10-17T09:52:15;98939.00;;;27.68;90.05
6413;BME280;3239;48.714;9.472;2022-10-17T09:54:49;98929.22;;;27.83;75.29
6413;BME280;3239;48.714;9.472;2022-10-17T09:57:18;98932.94;;;28.41;71.90
6413;BME280;3239;48.714;9.472;2022-10-17T09:59:48;98937.44;;;28.33;68.06
6413;BME280;3239;48.714;9.472;2022-10-17T10:02:23;98925.53;;;26.05;80.00
6413;BME280;3239;48.714;9.472;2022-10-17T10:07:27;98935.38;;;25.49;96.51
6413;BME280;3239;48.714;9.472;2022-10-17T10:09:53;98923.78;;;26.96;89.27
6413;BME280;3239;48.714;9.472;2022-10-17T10:12:30;98924.53;;;26.24;91.61
6413;BME280;3239;48.714;9.472;2022-10-17T10:14:57;98927.81;;;24.96;95.29
6413;BME280;3239;48.714;9.472;2022-10-17T10:17:39;98926.56;;;25.20;96.24
6413;BME280;3239;48.714;9.472;2022-10-17T10:20:32;98926.50;;;25.52;97.21
6413;BME280;3239;48.714;9.472;2022-10-17T10:23:11;98925.31;;;26.38;88.88
6413;BME280;3239;48.714;9.472;2022-10-17T10:25:53;98915.91;;;26.45;82.98
6413;BME280;3239;48.714;9.472;2022-10-17T10:28:29;98914.94;;;26.40;78.72
6413;BME280;3239;48.714;9.472;2022-10-17T10:30:59;98920.50;;;26.63;80.68
6413;BME280;3239;48.714;9.472;2022-10-17T10:33:29;98911.97;;;27.63;71.98
6413;BME280;3239;48.714;9.472;2022-10-17T10:35:59;98925.09;;;28.26;76.24
6413;BME280;3239;48.714;9.472;2022-10-17T10:38:27;98921.69;;;28.14;71.00
6413;BME280;3239;48.714;9.472;2022-10-17T10:41:00;98924.06;;;28.33;66.49
6413;BME280;3239;48.714;9.472;2022-10-17T10:43:39;98925.78;;;27.98;66.32
6413;BME280;3239;48.714;9.472;2022-10-17T10:46:23;98924.56;;;27.10;74.30
6413;BME280;3239;48.714;9.472;2022-10-17T10:48:56;98926.31;;;26.42;78.58
6413;BME280;3239;48.714;9.472;2022-10-17T10:51:34;98930.63;;;28.51;72.82
6413;BME280;3239;48.714;9.472;2022-10-17T10:54:26;98926.00;;;29.00;64.74
6413;BME280;3239;48.714;9.472;2022-10-17T10:56:56;98923.38;;;27.79;71.56
6413;BME280;3239;48.714;9.472;2022-10-17T10:59:38;98922.97;;;27.32;72.39
6413;BME280;3239;48.714;9.472;2022-10-17T11:04:55;98920.78;;;27.31;74.55
6413;BME280;3239;48.714;9.472;2022-10-17T11:07:40;98921.16;;;28.18;73.03
6413;BME280;3239;48.714;9.472;2022-10-17T11:13:20;98921.69;;;26.72;76.06
6413;BME280;3239;48.714;9.472;2022-10-17T11:18:34;98911.59;;;28.65;71.36
6413;BME280;3239;48.714;9.472;2022-10-17T11:21:15;98915.28;;;29.12;65.21
6413;BME280;3239;48.714;9.472;2022-10-17T11:24:02;98906.19;;;29.29;63.98
6413;BME280;3239;48.714;9.472;2022-10-17T11:26:40;98908.88;;;28.96;61.30
6413;BME280;3239;48.714;9.472;2022-10-17T11:29:09;98901.56;;;30.31;58.29
6413;BME280;3239;48.714;9.472;2022-10-17T11:31:44;98909.59;;;29.72;56.08
6413;BME280;3239;48.714;9.472;2022-10-17T11:34:24;98910.94;;;29.25;60.63
6413;BME280;3239;48.714;9.472;2022-10-17T11:36:55;98906.38;;;29.80;54.31
6413;BME280;3239;48.714;9.472;2022-10-17T11:42:26;98898.00;;;32.13;47.56
6413;BME280;3239;48.714;9.472;2022-10-17T11:45:02;98892.13;;;31.88;45.81
6413;BME280;3239;48.714;9.472;2022-10-17T11:47:37;98896.91;;;30.90;46.91
6413;BME280;3239;48.714;9.472;2022-10-17T11:53:04;98882.25;;;30.95;47.69
6413;BME280;3239;48.714;9.472;2022-10-17T11:55:34;98883.53;;;31.27;47.31
6413;BME280;3239;48.714;9.472;2022-10-17T12:01:36;98883.69;;;34.17;40.30
6413;BME280;3239;48.714;9.472;2022-10-17T12:09:40;98884.44;;;35.04;35.37
6413;BME280;3239;48.714;9.472;2022-10-17T12:12:08;98877.44;;;36.13;34.75
6413;BME280;3239;48.714;9.472;2022-10-17T12:17:01;98877.63;;;37.11;31.26
6413;BME280;3239;48.714;9.472;2022-10-17T12:19:35;98874.50;;;36.49;31.78
6413;BME280;3239;48.714;9.472;2022-10-17T12:22:04;98866.72;;;36.99;31.56
6413;BME280;3239;48.714;9.472;2022-10-17T12:24:36;98868.78;;;36.49;31.56
6413;BME280;3239;48.714;9.472;2022-10-17T12:30:24;98864.19;;;37.21;32.37
6413;BME280;3239;48.714;9.472;2022-10-17T12:33:16;98861.41;;;37.87;31.63
6413;BME280;3239;48.714;9.472;2022-10-17T12:35:50;98852.63;;;37.11;30.14
6413;BME280;3239;48.714;9.472;2022-10-17T12:45:52;98854.84;;;38.44;31.35
6413;BME280;3239;48.714;9.472;2022-10-17T12:51:14;98847.09;;;40.34;25.87
6413;BME280;3239;48.714;9.472;2022-10-17T12:54:13;98842.56;;;39.43;28.63
6413;BME280;3239;48.714;9.472;2022-10-17T12:56:46;98844.94;;;38.57;29.19
6413;BME280;3239;48.714;9.472;2022-10-17T12:59:21;98842.69;;;37.74;29.33
6413;BME280;3239;48.714;9.472;2022-10-17T13:01:52;98846.03;;;38.20;30.81
6413;BME280;3239;48.714;9.472;2022-10-17T13:04:20;98842.59;;;36.63;31.57
6413;BME280;3239;48.714;9.472;2022-10-17T13:06:50;98842.03;;;35.89;33.20
6413;BME280;3239;48.714;9.472;2022-10-17T13:11:50;98836.50;;;37.36;29.45
6413;BME280;3239;48.714;9.472;2022-10-17T13:14:21;98834.53;;;37.50;29.45
6413;BME280;3239;48.714;9.472;2022-10-17T13:16:59;98833.81;;;39.11;26.58
6413;BME280;3239;48.714;9.472;2022-10-17T13:19:41;98834.59;;;34.73;29.47
6413;BME280;3239;48.714;9.472;2022-10-17T13:22:22;98844.19;;;34.88;31.09
6413;BME280;3239;48.714;9.472;2022-10-17T13:24:51;98838.69;;;33.82;31.45
6413;BME280;3239;48.714;9.472;2022-10-17T13:27:24;98847.19;;;34.07;32.73
6413;BME280;3239;48.714;9.472;2022-10-17T13:29:51;98851.69;;;36.09;29.61
6413;BME280;3239;48.714;9.472;2022-10-17T13:32:17;98840.25;;;36.49;27.77
6413;BME280;3239;48.714;9.472;2022-10-17T13:34:43;98855.72;;;35.25;28.79
6413;BME280;3239;48.714;9.472;2022-10-17T13:37:14;98850.25;;;36.52;29.04
6413;BME280;3239;48.714;9.472;2022-10-17T13:39:43;98848.78;;;36.93;28.66
6413;BME280;3239;48.714;9.472;2022-10-17T13:42:26;98842.72;;;38.49;26.90
6413;BME280;3239;48.714;9.472;2022-10-17T13:44:53;98854.88;;;38.48;26.98
6413;BME280;3239;48.714;9.472;2022-10-17T13:47:29;98854.59;;;36.55;28.15
6413;BME280;3239;48.714;9.472;2022-10-17T13:49:57;98856.28;;;35.20;30.02
6413;BME280;3239;48.714;9.472;2022-10-17T13:52:27;98858.50;;;35.92;30.20
6413;BME280;3239;48.714;9.472;2022-10-17T13:54:54;98865.03;;;37.30;27.58
6413;BME280;3239;48.714;9.472;2022-10-17T13:57:28;98851.56;;;36.89;28.21
6413;BME280;3239;48.714;9.472;2022-10-17T14:00:09;98864.75;;;34.00;30.76
6413;BME280;3239;48.714;9.472;2022-10-17T14:02:36;98858.31;;;32.13;31.42
6413;BME280;3239;48.714;9.472;2022-10-17T14:05:15;98853.16;;;32.72;32.55
6413;BME280;3239;48.714;9.472;2022-10-17T14:07:53;98850.88;;;33.35;32.54
6413;BME280;3239;48.714;9.472;2022-10-17T14:10:46;98855.91;;;34.15;30.30
6413;BME280;3239;48.714;9.472;2022-10-17T14:13:25;98866.53;;;34.70;30.62
6413;BME280;3239;48.714;9.472;2022-10-17T14:15:53;98859.31;;;35.26;29.41
6413;BME280;3239;48.714;9.472;2022-10-17T14:18:25;98863.91;;;35.09;30.02
6413;BME280;3239;48.714;9.472;2022-10-17T14:20:52;98860.16;;;35.32;29.76
6413;BME280;3239;48.714;9.472;2022-10-17T14:23:41;98860.66;;;37.82;27.73
6413;BME280;3239;48.714;9.472;2022-10-17T14:26:19;98877.16;;;34.67;31.97
6413;BME280;3239;48.714;9.472;2022-10-17T14:31:44;98872.59;;;36.63;31.13
6413;BME280;3239;48.714;9.472;2022-10-17T14:34:32;98872.66;;;36.24;31.28
6413;BME280;3239;48.714;9.472;2022-10-17T14:36:59;98879.41;;;35.69;33.02
6413;BME280;3239;48.714;9.472;2022-10-17T14:39:26;98869.28;;;35.98;33.02
6413;BME280;3239;48.714;9.472;2022-10-17T14:41:52;98877.03;;;36.73;32.40
6413;BME280;3239;48.714;9.472;2022-10-17T14:47:05;98879.78;;;37.12;31.47
6413;BME280;3239;48.714;9.472;2022-10-17T14:49:39;98880.50;;;37.66;30.90
6413;BME280;3239;48.714;9.472;2022-10-17T14:52:24;98878.56;;;37.83;30.63
6413;BME280;3239;48.714;9.472;2022-10-17T14:54:51;98883.13;;;37.48;30.91
6413;BME280;3239;48.714;9.472;2022-10-17T14:59:55;98880.88;;;37.41;31.25
6413;BME280;3239;48.714;9.472;2022-10-17T15:02:28;98884.13;;;36.70;32.86
6413;BME280;3239;48.714;9.472;2022-10-17T15:04:54;98892.00;;;37.19;32.28
6413;BME280;3239;48.714;9.472;2022-10-17T15:07:20;98882.31;;;36.90;32.69
6413;BME280;3239;48.714;9.472;2022-10-17T15:09:49;98892.97;;;35.69;33.93
6413;BME280;3239;48.714;9.472;2022-10-17T15:12:21;98884.56;;;34.78;35.87
6413;BME280;3239;48.714;9.472;2022-10-17T15:14:48;98891.09;;;34.55;36.84
6413;BME280;3239;48.714;9.472;2022-10-17T15:17:30;98881.13;;;35.15;36.46
6413;BME280;3239;48.714;9.472;2022-10-17T15:19:56;98891.28;;;34.63;36.98
6413;BME280;3239;48.714;9.472;2022-10-17T15:22:22;98879.78;;;35.52;36.68
6413;BME280;3239;48.714;9.472;2022-10-17T15:24:49;98897.00;;;34.93;36.61